createdAt,value
2017-07-21T00:00:32.137Z,59.30
2017-07-21T00:02:59.630Z,59.40
2017-07-21T00:05:27.142Z,59.50
2017-07-21T00:07:54.634Z,59.50
2017-07-21T00:10:22.121Z,59.50
2017-07-21T00:12:49.628Z,59.40
2017-07-21T00:15:17.123Z,59.40
2017-07-21T00:17:44.625Z,59.40
2017-07-21T00:20:12.881Z,59.30
2017-07-21T00:22:40.398Z,59.80
2017-07-21T00:25:07.889Z,59.40
2017-07-21T00:27:35.394Z,59.40
2017-07-21T00:30:02.893Z,59.30
2017-07-21T00:32:30.404Z,59.30
2017-07-21T00:34:57.901Z,59.20
2017-07-21T00:37:25.385Z,59.30
2017-07-21T00:39:52.899Z,59.40
2017-07-21T00:42:20.394Z,59.40
2017-07-21T00:44:47.898Z,59.40
2017-07-21T00:47:15.390Z,59.50
2017-07-21T00:49:42.897Z,59.40
2017-07-21T00:52:11.158Z,59.80
2017-07-21T00:54:38.665Z,59.60
2017-07-21T00:57:06.170Z,59.60
2017-07-21T00:59:33.682Z,59.70
2017-07-21T01:02:01.178Z,59.60
2017-07-21T01:04:28.693Z,59.70
2017-07-21T01:06:56.193Z,59.70
2017-07-21T01:09:23.680Z,59.80
2017-07-21T01:11:51.185Z,60.10
2017-07-21T01:14:18.669Z,60.00
2017-07-21T01:16:46.177Z,60.10
2017-07-21T01:19:13.669Z,60.20
2017-07-21T01:21:41.182Z,60.20
2017-07-21T01:24:09.437Z,60.40
2017-07-21T01:26:36.937Z,60.30
2017-07-21T01:29:04.434Z,60.40
2017-07-21T01:31:31.948Z,60.50
2017-07-21T01:33:59.437Z,60.50
2017-07-21T01:36:26.941Z,60.30
2017-07-21T01:38:54.434Z,60.10
2017-07-21T01:41:21.974Z,59.90
2017-07-21T01:43:50.226Z,59.80
2017-07-21T01:46:17.713Z,59.80
2017-07-21T01:48:45.225Z,59.80
2017-07-21T01:51:12.718Z,60.00
2017-07-21T01:53:40.990Z,60.10
2017-07-21T01:56:08.486Z,60.00
2017-07-21T01:58:35.990Z,60.10
2017-07-21T02:01:03.480Z,59.90
2017-07-21T02:03:31.758Z,60.20
2017-07-21T02:06:00.010Z,60.30
2017-07-21T02:08:27.497Z,60.10
2017-07-21T02:10:55.015Z,60.20
2017-07-21T02:13:22.506Z,60.20
2017-07-21T02:15:50.780Z,60.40
2017-07-21T02:18:19.038Z,60.60
2017-07-21T02:20:46.551Z,60.50
2017-07-21T02:23:14.045Z,60.50
2017-07-21T02:25:41.550Z,60.50
2017-07-21T02:28:09.042Z,60.40
2017-07-21T02:30:36.558Z,60.50
2017-07-21T02:33:04.812Z,60.30
2017-07-21T02:35:32.329Z,60.20
2017-07-21T02:37:59.817Z,60.30
2017-07-21T02:40:27.305Z,60.30
2017-07-21T02:42:55.585Z,60.50
2017-07-21T02:45:23.846Z,60.60
2017-07-21T02:47:51.354Z,60.50
2017-07-21T02:50:18.845Z,60.70
2017-07-21T02:52:46.365Z,60.70
2017-07-21T02:55:13.857Z,60.70
2017-07-21T02:57:41.377Z,60.70
2017-07-21T03:00:08.870Z,60.60
2017-07-21T03:02:36.381Z,60.50
2017-07-21T03:05:03.870Z,60.50
2017-07-21T03:07:31.382Z,60.30
2017-07-21T03:09:59.643Z,60.30
2017-07-21T03:12:27.166Z,60.30
2017-07-21T03:14:54.657Z,60.30
2017-07-21T03:17:22.150Z,60.10
2017-07-21T03:19:49.657Z,60.00
2017-07-21T03:22:17.141Z,60.10
2017-07-21T03:24:44.652Z,60.20
2017-07-21T03:27:12.137Z,60.30
2017-07-21T03:29:39.645Z,60.50
2017-07-21T03:32:07.130Z,60.60
2017-07-21T03:34:34.646Z,60.70
2017-07-21T03:37:02.913Z,60.40
2017-07-21T03:39:30.427Z,60.20
2017-07-21T03:41:57.922Z,60.40
2017-07-21T03:44:25.429Z,60.40
2017-07-21T03:46:52.918Z,60.50
2017-07-21T03:49:20.425Z,60.50
2017-07-21T03:51:47.922Z,60.50
2017-07-21T03:54:15.430Z,61.20
2017-07-21T03:56:43.686Z,60.70
2017-07-21T03:59:11.179Z,60.50
2017-07-21T04:01:39.462Z,60.70
2017-07-21T04:04:06.950Z,60.60
2017-07-21T04:06:34.457Z,60.50
2017-07-21T04:09:02.709Z,60.30
2017-07-21T04:11:30.231Z,60.20
2017-07-21T04:13:57.716Z,60.40
2017-07-21T04:16:25.229Z,60.50
2017-07-21T04:18:52.717Z,60.70
2017-07-21T04:21:20.229Z,60.80
2017-07-21T04:23:48.484Z,60.80
2017-07-21T04:26:15.989Z,60.70
2017-07-21T04:28:43.480Z,60.90
2017-07-21T04:31:10.993Z,61.10
2017-07-21T04:33:38.509Z,61.00
2017-07-21T04:36:06.002Z,60.90
2017-07-21T04:38:33.513Z,60.80
2017-07-21T04:41:00.998Z,60.80
2017-07-21T04:43:28.505Z,60.70
2017-07-21T04:45:56.000Z,60.60
2017-07-21T04:48:23.506Z,60.70
2017-07-21T04:50:50.997Z,60.80
2017-07-21T04:53:18.505Z,61.00
2017-07-21T04:55:46.770Z,61.20
2017-07-21T04:58:14.289Z,61.20
2017-07-21T05:00:41.779Z,61.50
2017-07-21T05:03:09.285Z,61.70
2017-07-21T05:05:36.774Z,61.80
2017-07-21T05:08:04.326Z,61.60
2017-07-21T05:10:31.819Z,61.50
2017-07-21T05:12:59.314Z,61.40
2017-07-21T05:15:26.832Z,61.00
2017-07-21T05:17:54.322Z,60.70
2017-07-21T05:20:22.595Z,59.70
2017-07-21T05:22:50.873Z,59.30
2017-07-21T05:25:18.385Z,59.30
2017-07-21T05:27:45.886Z,59.20
2017-07-21T05:30:13.411Z,58.80
2017-07-21T05:32:40.897Z,58.50
2017-07-21T05:35:08.405Z,57.70
2017-07-21T05:37:35.895Z,56.90
2017-07-21T05:40:03.415Z,56.70
2017-07-21T05:42:30.930Z,56.80
2017-07-21T05:44:58.414Z,56.50
2017-07-21T05:47:25.921Z,56.20
2017-07-21T05:49:53.405Z,55.30
2017-07-21T05:52:20.926Z,55.20
2017-07-21T05:54:48.425Z,54.80
2017-07-21T05:57:15.937Z,54.40
2017-07-21T05:59:43.429Z,54.20
2017-07-21T06:02:10.944Z,53.60
2017-07-21T06:04:38.433Z,53.00
2017-07-21T06:07:05.937Z,52.80
2017-07-21T06:09:34.222Z,52.20
2017-07-21T06:12:01.725Z,52.10
2017-07-21T06:14:29.225Z,51.70
2017-07-21T06:16:57.481Z,51.30
2017-07-21T06:19:24.998Z,51.30
2017-07-21T06:21:52.487Z,51.00
2017-07-21T06:24:20.013Z,50.80
2017-07-21T06:26:47.514Z,50.50
2017-07-21T06:29:15.002Z,49.90
2017-07-21T06:31:42.524Z,49.60
2017-07-21T06:34:10.017Z,49.30
2017-07-21T06:36:38.294Z,48.30
2017-07-21T06:39:06.548Z,47.30
2017-07-21T06:41:34.821Z,47.50
2017-07-21T06:44:03.076Z,47.70
2017-07-21T06:46:30.600Z,47.70
2017-07-21T06:48:58.086Z,47.00
2017-07-21T06:51:25.606Z,47.10
2017-07-21T06:53:53.097Z,47.00
2017-07-21T06:56:20.754Z,47.20
2017-07-21T06:58:48.267Z,47.10
2017-07-21T07:01:15.773Z,46.50
2017-07-21T07:03:43.288Z,46.10
2017-07-21T07:06:10.790Z,45.80
2017-07-21T07:08:38.309Z,45.50
2017-07-21T07:11:05.805Z,45.00
2017-07-21T07:13:33.309Z,44.60
2017-07-21T07:16:01.561Z,44.20
2017-07-21T07:18:29.070Z,44.10
2017-07-21T07:20:56.576Z,43.70
2017-07-21T07:23:24.094Z,43.40
2017-07-21T07:25:51.597Z,43.20
2017-07-21T07:28:19.122Z,42.60
2017-07-21T07:30:46.626Z,42.00
2017-07-21T07:33:14.242Z,42.00
2017-07-21T07:35:41.753Z,41.10
2017-07-21T07:38:09.251Z,40.80
2017-07-21T07:40:36.770Z,40.30
2017-07-21T07:43:04.281Z,40.10
2017-07-21T07:45:31.801Z,39.20
2017-07-21T07:48:00.072Z,39.20
2017-07-21T07:50:28.351Z,39.20
2017-07-21T07:52:56.601Z,39.00
2017-07-21T07:55:24.121Z,38.90
2017-07-21T07:57:51.617Z,39.10
2017-07-21T08:00:19.134Z,39.70
2017-07-21T08:02:46.622Z,39.40
2017-07-21T08:05:14.145Z,38.40
2017-07-21T08:07:41.636Z,38.00
2017-07-21T08:10:09.132Z,38.00
2017-07-21T08:12:37.408Z,38.60
2017-07-21T08:15:04.913Z,38.30
2017-07-21T08:17:32.429Z,37.30
2017-07-21T08:20:00.696Z,36.90
2017-07-21T08:22:28.218Z,36.90
2017-07-21T08:24:55.739Z,36.60
2017-07-21T08:27:24.023Z,37.30
2017-07-21T08:29:51.509Z,37.90
2017-07-21T08:32:19.033Z,37.80
2017-07-21T08:34:47.326Z,37.60
2017-07-21T08:37:14.854Z,37.50
2017-07-21T08:39:42.350Z,36.90
2017-07-21T08:42:09.849Z,37.20
2017-07-21T08:44:37.358Z,37.00
2017-07-21T08:47:04.857Z,36.70
2017-07-21T08:49:32.373Z,37.20
2017-07-21T08:51:59.878Z,37.20
2017-07-21T08:54:27.389Z,37.60
2017-07-21T08:56:54.890Z,37.10
2017-07-21T08:59:22.406Z,36.90
2017-07-21T09:01:49.901Z,36.90
2017-07-21T09:04:17.418Z,37.00
2017-07-21T09:06:44.931Z,37.30
2017-07-21T09:09:12.446Z,37.80
2017-07-21T09:11:39.938Z,37.70
2017-07-21T09:14:07.454Z,37.30
2017-07-21T09:16:34.950Z,37.10
2017-07-21T09:19:02.465Z,37.20
2017-07-21T09:21:29.962Z,37.30
2017-07-21T09:23:57.458Z,37.20
2017-07-21T09:26:24.973Z,36.90
2017-07-21T09:28:52.467Z,36.80
2017-07-21T09:31:19.982Z,36.40
2017-07-21T09:33:47.501Z,37.30
2017-07-21T09:36:15.787Z,37.80
2017-07-21T09:38:43.283Z,37.20
2017-07-21T09:41:10.806Z,37.40
2017-07-21T09:43:39.068Z,37.60
2017-07-21T09:46:06.580Z,37.60
2017-07-21T09:48:34.090Z,37.80
2017-07-21T09:51:02.382Z,38.20
2017-07-21T09:53:29.876Z,37.90
2017-07-21T09:55:57.371Z,37.00
2017-07-21T09:58:24.888Z,37.70
2017-07-21T10:00:52.392Z,37.40
2017-07-21T10:03:19.897Z,37.10
2017-07-21T10:05:47.391Z,37.50
2017-07-21T10:08:14.900Z,37.00
2017-07-21T10:10:42.408Z,36.40
2017-07-21T10:13:09.930Z,36.80
2017-07-21T10:15:37.426Z,36.90
2017-07-21T10:18:04.918Z,37.00
2017-07-21T10:20:32.440Z,37.10
2017-07-21T10:22:59.930Z,37.20
2017-07-21T10:25:27.447Z,37.10
2017-07-21T10:27:54.946Z,37.10
2017-07-21T10:30:22.463Z,37.00
2017-07-21T10:32:49.957Z,36.50
2017-07-21T10:35:17.466Z,37.00
2017-07-21T10:37:44.971Z,36.90
2017-07-21T10:40:12.486Z,37.50
2017-07-21T10:42:39.982Z,38.10
2017-07-21T10:45:07.506Z,37.80
2017-07-21T10:47:35.007Z,36.30
2017-07-21T10:50:02.507Z,36.50
2017-07-21T10:52:30.016Z,36.30
2017-07-21T10:54:57.510Z,35.20
2017-07-21T10:57:25.038Z,35.60
2017-07-21T10:59:52.542Z,35.80
2017-07-21T11:02:20.065Z,36.00
2017-07-21T11:04:47.561Z,36.40
2017-07-21T11:07:15.074Z,36.60
2017-07-21T11:09:42.565Z,36.10
2017-07-21T11:12:10.089Z,36.20
2017-07-21T11:14:37.598Z,35.90
2017-07-21T11:17:05.117Z,35.70
2017-07-21T11:19:32.609Z,35.50
2017-07-21T11:22:00.101Z,35.50
2017-07-21T11:24:27.618Z,35.30
2017-07-21T11:26:55.889Z,35.70
2017-07-21T11:29:24.173Z,35.40
2017-07-21T11:31:51.661Z,35.40
2017-07-21T11:34:19.177Z,35.00
2017-07-21T11:36:47.438Z,35.90
2017-07-21T11:39:14.957Z,35.50
2017-07-21T11:41:42.453Z,35.40
2017-07-21T11:44:09.973Z,35.20
2017-07-21T11:46:37.470Z,35.30
2017-07-21T11:49:04.994Z,35.60
2017-07-21T11:51:32.484Z,35.40
2017-07-21T11:54:00.006Z,35.10
2017-07-21T11:56:27.502Z,35.40
2017-07-21T11:58:55.010Z,35.20
2017-07-21T12:01:22.521Z,35.60
2017-07-21T12:03:50.018Z,35.50
2017-07-21T12:06:17.530Z,35.60
2017-07-21T12:08:45.025Z,35.40
2017-07-21T12:11:13.309Z,35.30
2017-07-21T12:13:40.801Z,35.20
2017-07-21T12:16:08.309Z,34.90
2017-07-21T12:18:35.809Z,35.10
2017-07-21T12:21:03.338Z,34.10
2017-07-21T12:23:30.838Z,34.60
2017-07-21T12:25:58.338Z,34.70
2017-07-21T12:28:26.621Z,34.60
2017-07-21T12:30:54.882Z,34.00
2017-07-21T12:33:22.421Z,33.90
2017-07-21T12:35:49.929Z,34.20
2017-07-21T12:38:17.445Z,33.80
2017-07-21T12:40:44.946Z,34.20
2017-07-21T12:43:13.226Z,35.00
2017-07-21T12:45:40.734Z,35.00
2017-07-21T12:48:08.260Z,35.00
2017-07-21T12:50:35.757Z,34.00
2017-07-21T12:53:03.277Z,33.20
2017-07-21T12:55:30.773Z,33.50
2017-07-21T12:57:58.293Z,33.60
2017-07-21T13:00:25.790Z,33.60
2017-07-21T13:02:53.286Z,34.10
2017-07-21T13:05:21.569Z,34.10
2017-07-21T13:07:49.081Z,34.10
2017-07-21T13:10:16.602Z,34.00
2017-07-21T13:12:44.098Z,33.50
2017-07-21T13:15:11.617Z,33.70
2017-07-21T13:17:39.109Z,33.70
2017-07-21T13:20:06.628Z,33.40
2017-07-21T13:22:34.135Z,33.40
2017-07-21T13:25:01.655Z,33.10
2017-07-21T13:27:29.154Z,32.30
2017-07-21T13:29:56.678Z,32.40
2017-07-21T13:32:24.172Z,32.50
2017-07-21T13:34:51.702Z,32.60
2017-07-21T13:37:19.209Z,32.00
2017-07-21T13:39:46.713Z,31.90
2017-07-21T13:42:14.238Z,31.60
2017-07-21T13:44:42.503Z,32.90
2017-07-21T13:47:10.894Z,32.20
2017-07-21T13:49:39.167Z,32.30
2017-07-21T13:52:06.692Z,32.30
2017-07-21T13:54:34.202Z,32.10
2017-07-21T13:57:02.482Z,32.10
2017-07-21T13:59:29.981Z,32.10
2017-07-21T14:01:57.507Z,31.80
2017-07-21T14:04:24.997Z,31.70
2017-07-21T14:06:52.509Z,31.70
2017-07-21T14:09:20.006Z,31.40
2017-07-21T14:11:47.538Z,31.20
2017-07-21T14:14:15.040Z,31.60
2017-07-21T14:16:42.546Z,31.60
2017-07-21T14:19:10.834Z,31.80
2017-07-21T14:21:38.329Z,31.70
2017-07-21T14:24:05.845Z,32.00
2017-07-21T14:26:33.341Z,32.00
2017-07-21T14:29:00.867Z,32.30
2017-07-21T14:31:28.385Z,32.30
2017-07-21T14:33:55.906Z,31.80
2017-07-21T14:36:23.411Z,31.40
2017-07-21T14:38:50.934Z,31.00
2017-07-21T14:41:18.445Z,31.10
2017-07-21T14:43:45.973Z,31.20
2017-07-21T14:46:13.478Z,31.30
2017-07-21T14:48:41.006Z,31.60
2017-07-21T14:51:08.509Z,31.30
2017-07-21T14:53:36.954Z,31.70
2017-07-21T14:56:04.485Z,31.90
2017-07-21T14:58:31.987Z,33.00
2017-07-21T15:01:00.274Z,33.30
2017-07-21T15:03:27.787Z,33.30
2017-07-21T15:05:55.332Z,33.00
2017-07-21T15:08:22.842Z,33.70
2017-07-21T15:10:51.147Z,33.30
2017-07-21T15:13:18.641Z,33.30
2017-07-21T15:15:46.161Z,33.40
2017-07-21T15:18:13.672Z,33.40
2017-07-21T15:20:41.227Z,33.20
2017-07-21T15:23:08.768Z,32.90
2017-07-21T15:25:36.302Z,33.10
2017-07-21T15:28:03.812Z,33.80
2017-07-21T15:30:31.310Z,34.10
2017-07-21T15:32:58.834Z,34.10
2017-07-21T15:35:27.168Z,34.30
2017-07-21T15:37:55.813Z,34.00
2017-07-21T15:40:24.237Z,33.40
2017-07-21T15:42:51.754Z,32.70
2017-07-21T15:45:20.285Z,32.50
2017-07-21T15:47:47.808Z,32.70
2017-07-21T15:50:15.314Z,33.00
2017-07-21T15:52:42.833Z,33.20
2017-07-21T15:55:10.345Z,33.30
2017-07-21T15:57:38.633Z,32.70
2017-07-21T16:00:06.173Z,32.60
2017-07-21T16:02:34.450Z,32.00
2017-07-21T16:05:02.743Z,31.60
2017-07-21T16:07:30.233Z,31.50
2017-07-21T16:09:57.779Z,31.70
2017-07-21T16:12:25.449Z,31.60
2017-07-21T16:14:52.979Z,31.60
2017-07-21T16:17:20.495Z,31.60
2017-07-21T16:19:48.014Z,31.70
2017-07-21T16:22:15.545Z,31.80
2017-07-21T16:24:43.851Z,32.10
2017-07-21T16:27:11.353Z,32.00
2017-07-21T16:29:38.887Z,31.80
2017-07-21T16:32:06.398Z,31.90
2017-07-21T16:34:34.671Z,32.10
2017-07-21T16:37:02.197Z,32.00
2017-07-21T16:39:29.719Z,32.20
2017-07-21T16:41:57.225Z,32.70
2017-07-21T16:44:24.738Z,32.90
2017-07-21T16:46:52.269Z,32.80
2017-07-21T16:49:20.543Z,33.20
2017-07-21T16:51:48.078Z,33.20
2017-07-21T16:54:15.587Z,33.70
2017-07-21T16:56:43.111Z,34.00
2017-07-21T16:59:10.669Z,34.10
2017-07-21T17:01:38.199Z,34.40
2017-07-21T17:04:05.705Z,34.60
2017-07-21T17:06:34.006Z,35.10
2017-07-21T17:09:01.554Z,35.10
2017-07-21T17:11:29.055Z,35.50
2017-07-21T17:13:56.607Z,35.50
2017-07-21T17:16:24.206Z,35.70
2017-07-21T17:18:52.501Z,36.20
2017-07-21T17:21:20.026Z,35.80
2017-07-21T17:23:47.562Z,35.90
2017-07-21T17:26:15.235Z,36.30
2017-07-21T17:28:42.763Z,36.70
2017-07-21T17:31:10.275Z,36.90
2017-07-21T17:33:37.819Z,37.10
2017-07-21T17:36:05.334Z,37.40
2017-07-21T17:38:32.855Z,37.50
2017-07-21T17:41:04.977Z,37.80
2017-07-21T17:43:32.522Z,38.00
2017-07-21T17:46:00.036Z,38.10
2017-07-21T17:48:27.534Z,38.20
2017-07-21T17:50:55.063Z,38.60
2017-07-21T17:53:22.582Z,39.00
2017-07-21T17:55:50.127Z,39.00
2017-07-21T17:58:17.630Z,39.10
2017-07-21T18:00:45.178Z,39.10
2017-07-21T18:03:12.699Z,39.10
2017-07-21T18:05:40.229Z,39.20
2017-07-21T18:08:08.507Z,39.60
2017-07-21T18:10:36.796Z,39.80
2017-07-21T18:13:04.305Z,39.70
2017-07-21T18:15:31.846Z,39.80
2017-07-21T18:17:59.353Z,40.00
2017-07-21T18:20:26.896Z,40.30
2017-07-21T18:22:54.406Z,40.80
2017-07-21T18:25:21.925Z,40.60
2017-07-21T18:27:49.458Z,40.60
2017-07-21T18:30:16.962Z,40.70
2017-07-21T18:32:45.247Z,40.90
2017-07-21T18:35:12.746Z,40.90
2017-07-21T18:37:40.306Z,40.80
2017-07-21T18:40:07.799Z,41.30
2017-07-21T18:42:37.864Z,41.90
2017-07-21T18:45:06.430Z,41.80
2017-07-21T18:47:34.726Z,41.70
2017-07-21T18:50:02.239Z,41.60
2017-07-21T18:52:29.757Z,41.90
2017-07-21T18:54:57.254Z,42.00
2017-07-21T18:57:24.786Z,42.00
2017-07-21T18:59:52.604Z,42.40
2017-07-21T19:02:20.128Z,42.50
2017-07-21T19:04:47.622Z,42.40
2017-07-21T19:07:15.886Z,42.40
2017-07-21T19:09:43.399Z,42.40
2017-07-21T19:12:10.915Z,42.50
2017-07-21T19:14:39.202Z,42.50
2017-07-21T19:17:06.695Z,42.50
2017-07-21T19:19:35.034Z,42.60
2017-07-21T19:22:03.301Z,43.50
2017-07-21T19:24:30.825Z,42.80
2017-07-21T19:26:59.083Z,42.90
2017-07-21T19:29:26.609Z,42.90
2017-07-21T19:31:54.113Z,42.90
2017-07-21T19:34:22.389Z,43.90
2017-07-21T19:36:50.685Z,43.10
2017-07-21T19:39:18.179Z,43.00
2017-07-21T19:41:45.709Z,43.10
2017-07-21T19:44:13.206Z,43.10
2017-07-21T19:46:40.753Z,43.30
2017-07-21T19:49:08.287Z,43.50
2017-07-21T19:51:35.809Z,43.70
2017-07-21T19:54:03.327Z,43.60
2017-07-21T19:56:30.850Z,43.50
2017-07-21T19:58:59.121Z,43.00
2017-07-21T20:01:26.720Z,43.00
2017-07-21T20:03:54.230Z,42.80
2017-07-21T20:06:21.770Z,42.70
2017-07-21T20:08:49.290Z,42.80
2017-07-21T20:11:16.791Z,42.80
2017-07-21T20:13:44.307Z,42.90
2017-07-21T20:16:11.829Z,43.00
2017-07-21T20:18:39.341Z,43.10
2017-07-21T20:21:06.937Z,43.20
2017-07-21T20:23:34.577Z,43.30
2017-07-21T20:26:02.089Z,43.40
2017-07-21T20:28:29.639Z,43.70
2017-07-21T20:30:57.150Z,44.00
2017-07-21T20:33:24.678Z,44.20
2017-07-21T20:35:52.180Z,44.50
2017-07-21T20:38:19.685Z,45.00
2017-07-21T20:40:47.207Z,45.00
2017-07-21T20:43:14.710Z,45.40
2017-07-21T20:45:42.230Z,46.60
2017-07-21T20:48:09.756Z,45.90
2017-07-21T20:50:37.304Z,45.80
2017-07-21T20:53:04.806Z,45.80
2017-07-21T20:55:32.327Z,46.20
2017-07-21T20:57:59.845Z,46.50
2017-07-21T21:00:28.135Z,46.10
2017-07-21T21:02:55.662Z,46.00
2017-07-21T21:05:23.185Z,45.80
2017-07-21T21:07:50.690Z,46.00
2017-07-21T21:10:18.210Z,46.00
2017-07-21T21:12:45.712Z,46.10
2017-07-21T21:15:13.231Z,46.30
2017-07-21T21:17:40.766Z,46.20
2017-07-21T21:20:08.270Z,46.30
2017-07-21T21:22:35.794Z,46.20
2017-07-21T21:25:03.294Z,46.20
2017-07-21T21:27:30.829Z,46.50
2017-07-21T21:29:58.335Z,46.70
2017-07-21T21:32:26.619Z,47.00
2017-07-21T21:34:54.126Z,46.90
2017-07-21T21:37:21.645Z,46.70
2017-07-21T21:39:49.164Z,46.70
2017-07-21T21:42:16.683Z,46.80
2017-07-21T21:44:44.191Z,46.90
2017-07-21T21:47:11.725Z,47.00
2017-07-21T21:49:39.230Z,47.50
2017-07-21T21:52:07.623Z,47.70
2017-07-21T21:54:35.134Z,47.70
2017-07-21T21:57:02.643Z,47.80
2017-07-21T21:59:30.161Z,48.00
2017-07-21T22:01:58.432Z,47.70
2017-07-21T22:04:26.734Z,47.60
2017-07-21T22:06:54.246Z,47.60
2017-07-21T22:09:21.771Z,47.70
2017-07-21T22:11:49.276Z,47.80
2017-07-21T22:14:16.794Z,47.80
2017-07-21T22:16:44.281Z,48.00
2017-07-21T22:19:11.795Z,48.00
2017-07-21T22:21:39.302Z,47.90
2017-07-21T22:24:06.810Z,48.30
2017-07-21T22:26:34.311Z,48.30
2017-07-21T22:29:01.830Z,48.50
2017-07-21T22:31:29.338Z,48.60
2017-07-21T22:33:56.854Z,48.80
2017-07-21T22:36:24.377Z,49.20
2017-07-21T22:38:52.646Z,49.30
2017-07-21T22:41:20.934Z,49.40
2017-07-21T22:43:49.201Z,49.30
2017-07-21T22:46:17.481Z,49.60
2017-07-21T22:48:45.751Z,49.80
2017-07-21T22:51:13.274Z,49.70
2017-07-21T22:53:40.771Z,50.00
2017-07-21T22:56:08.293Z,50.00
2017-07-21T22:58:35.794Z,49.80
2017-07-21T23:01:04.086Z,49.80
2017-07-21T23:03:31.616Z,49.80
2017-07-21T23:05:59.149Z,50.00
2017-07-21T23:08:26.646Z,50.00
2017-07-21T23:10:54.154Z,50.10
2017-07-21T23:13:21.691Z,50.10
2017-07-21T23:15:49.216Z,50.20
2017-07-21T23:18:17.498Z,50.90
2017-07-21T23:20:45.766Z,51.30
2017-07-21T23:23:13.284Z,51.20
2017-07-21T23:25:40.785Z,51.40
2017-07-21T23:28:08.299Z,51.50
2017-07-21T23:30:35.798Z,52.10
2017-07-21T23:33:03.319Z,52.10
2017-07-21T23:35:30.818Z,52.20
2017-07-21T23:37:58.336Z,51.80
2017-07-21T23:40:25.837Z,51.40
2017-07-21T23:42:53.337Z,51.30
2017-07-21T23:45:21.148Z,51.20
2017-07-21T23:47:48.658Z,51.20
2017-07-21T23:50:16.175Z,51.20
2017-07-21T23:52:43.683Z,51.10
2017-07-21T23:55:11.205Z,51.00
2017-07-21T23:57:39.502Z,50.70
